Time;durP1;ratioP1;P1;durP2;ratioP2;P2;SDS_P1;SDS_P2;PMS_P1;PMS_P2;Temp;Humidity;BMP_temperature;BMP_pressure;BME280_temperature;BME280_humidity;BME280_pressure;Samples;Min_cycle;Max_cycle;Signal;HPM_P1;HPM_P2
2022/12/21 00:02:04;;;;;;;2.63;1.67;;;8.40;54.00;;;;;;5012789;28;20220;-75
2022/12/21 00:04:31;;;;;;;2.90;2.03;;;8.80;51.30;;;;;;5002850;28;20184;-74
2022/12/21 00:06:56;;;;;;;2.75;1.58;;;9.00;50.00;;;;;;5012689;28;20464;-74
2022/12/21 00:09:23;;;;;;;2.50;1.60;;;9.30;49.00;;;;;;5013450;28;20205;-75
2022/12/21 00:11:48;;;;;;;2.13;1.52;;;9.40;48.30;;;;;;5012206;28;20184;-74
2022/12/21 00:14:14;;;;;;;1.70;1.10;;;9.30;48.50;;;;;;5010286;28;20193;-75
2022/12/21 00:16:41;;;;;;;2.10;1.40;;;9.40;48.00;;;;;;5009168;28;20693;-75
2022/12/21 00:19:07;;;;;;;2.20;1.50;;;9.20;49.00;;;;;;5012906;28;20239;-74
2022/12/21 00:21:35;;;;;;;2.00;1.30;;;9.20;49.00;;;;;;5012727;28;20209;-75
2022/12/21 00:24:01;;;;;;;2.63;1.92;;;9.20;48.90;;;;;;5007406;28;20204;-75
2022/12/21 00:26:29;;;;;;;2.70;1.77;;;9.40;49.00;;;;;;5005355;28;20231;-74
2022/12/21 00:28:56;;;;;;;2.88;1.90;;;9.20;50.20;;;;;;5013098;28;20189;-75
2022/12/21 00:31:25;;;;;;;1.92;1.30;;;9.50;50.60;;;;;;5012740;28;20181;-75
2022/12/21 00:33:51;;;;;;;1.90;1.33;;;10.10;48.80;;;;;;5012911;28;20637;-75
2022/12/21 00:36:19;;;;;;;1.92;1.35;;;10.00;47.90;;;;;;5008438;28;20205;-74
2022/12/21 00:38:46;;;;;;;2.28;1.80;;;9.90;49.50;;;;;;5009807;28;20273;-75
2022/12/21 00:41:14;;;;;;;2.20;1.40;;;9.90;49.50;;;;;;5010888;28;20603;-75
2022/12/21 00:43:41;;;;;;;1.90;1.20;;;9.90;49.10;;;;;;5012406;28;20185;-75
2022/12/21 00:46:12;;;;;;;1.90;1.25;;;10.00;47.30;;;;;;5013083;28;20244;-74
2022/12/21 00:48:37;;;;;;;2.90;1.98;;;10.20;46.80;;;;;;5010760;28;20185;-74
2022/12/21 00:51:08;;;;;;;2.47;1.50;;;10.10;47.30;;;;;;5012475;28;20689;-75
2022/12/21 00:53:34;;;;;;;1.90;1.10;;;10.30;48.00;;;;;;5012606;28;20162;-75
2022/12/21 00:56:01;;;;;;;1.70;1.10;;;10.40;48.90;;;;;;5013023;28;20207;-76
2022/12/21 00:58:28;;;;;;;1.73;1.10;;;10.20;50.40;;;;;;5010063;28;20452;-76
2022/12/21 01:00:58;;;;;;;2.40;1.60;;;10.50;50.60;;;;;;5011692;28;20209;-76
2022/12/21 01:03:24;;;;;;;2.55;1.60;;;10.60;50.60;;;;;;5010469;28;20182;-76
2022/12/21 01:05:51;;;;;;;1.77;1.13;;;10.40;50.20;;;;;;5011437;28;20296;-77
2022/12/21 01:08:19;;;;;;;2.28;1.35;;;10.60;52.80;;;;;;5012010;28;20193;-75
2022/12/21 01:10:45;;;;;;;1.70;1.10;;;10.60;53.00;;;;;;5006115;28;20278;-77
2022/12/21 01:13:13;;;;;;;1.70;1.00;;;10.50;51.40;;;;;;5011087;28;20185;-77
2022/12/21 01:15:44;;;;;;;2.00;1.35;;;10.50;52.60;;;;;;5012619;28;20223;-76
2022/12/21 01:18:10;;;;;;;1.70;1.00;;;10.70;51.10;;;;;;5012020;28;20187;-76
2022/12/21 01:20:46;;;;;;;1.70;1.10;;;10.90;50.90;;;;;;5009382;28;20207;-77
2022/12/21 01:23:12;;;;;;;1.80;1.13;;;11.00;50.70;;;;;;5015758;28;20562;-76
2022/12/21 01:25:38;;;;;;;1.90;1.30;;;10.90;49.40;;;;;;5019889;28;20198;-76
2022/12/21 01:28:04;;;;;;;1.70;1.10;;;11.10;50.60;;;;;;5019389;28;20174;-78
2022/12/21 01:30:30;;;;;;;2.00;1.33;;;11.10;51.30;;;;;;5013444;28;20665;-77
2022/12/21 01:32:56;;;;;;;1.80;1.20;;;11.20;49.80;;;;;;5015683;28;20180;-78
2022/12/21 01:35:22;;;;;;;1.70;1.10;;;11.40;49.90;;;;;;5018866;28;20262;-76
2022/12/21 01:37:47;;;;;;;1.70;1.10;;;11.20;48.20;;;;;;5019412;28;20599;-76
2022/12/21 01:40:14;;;;;;;1.77;1.17;;;11.20;48.20;;;;;;5019579;28;20538;-77
2022/12/21 01:42:39;;;;;;;2.15;1.42;;;11.40;48.90;;;;;;5015191;28;20214;-75
2022/12/21 01:45:31;;;;;;;1.80;1.20;;;11.30;48.20;;;;;;5017454;28;20182;-75
2022/12/21 01:48:17;;;;;;;3.75;1.75;;;11.00;49.50;;;;;;5015465;28;20187;-75
2022/12/21 01:50:57;;;;;;;2.85;1.70;;;11.00;50.80;;;;;;5017376;28;20754;-76
2022/12/21 01:53:30;;;;;;;2.85;1.80;;;10.10;51.00;;;;;;5014272;28;20680;-76
2022/12/21 01:55:59;;;;;;;2.00;1.30;;;9.90;52.20;;;;;;5017873;28;20310;-76
2022/12/21 01:58:27;;;;;;;2.80;1.50;;;10.00;49.30;;;;;;5010106;28;20174;-77
2022/12/21 02:00:55;;;;;;;2.08;1.55;;;10.00;48.60;;;;;;5017001;28;20205;-76
2022/12/21 02:03:23;;;;;;;2.35;1.65;;;9.90;50.10;;;;;;5015656;28;20178;-77
2022/12/21 02:05:59;;;;;;;3.03;1.55;;;9.90;51.10;;;;;;5014230;28;20209;-77
2022/12/21 02:08:26;;;;;;;2.45;1.85;;;10.20;48.80;;;;;;5018572;28;20176;-76
2022/12/21 02:10:53;;;;;;;2.78;1.58;;;10.20;48.80;;;;;;5023135;28;20277;-75
2022/12/21 02:13:19;;;;;;;2.78;1.55;;;10.70;49.20;;;;;;5021410;28;20185;-76
2022/12/21 02:16:00;;;;;;;2.87;1.50;;;10.50;47.90;;;;;;5027600;28;20227;-77
2022/12/21 02:18:50;;;;;;;2.00;1.38;;;10.10;49.50;;;;;;5017071;28;20223;-77
2022/12/21 02:21:31;;;;;;;3.25;1.90;;;10.10;49.30;;;;;;5013557;28;20205;-76
2022/12/21 02:24:15;;;;;;;1.75;1.17;;;10.20;50.30;;;;;;5016447;28;20178;-76
2022/12/21 02:27:11;;;;;;;3.35;1.65;;;10.10;50.10;;;;;;5005632;28;20538;-76
2022/12/21 02:29:40;;;;;;;1.80;1.20;;;10.20;49.60;;;;;;5004225;28;20530;-76
2022/12/21 02:32:41;;;;;;;2.17;1.25;;;10.00;51.30;;;;;;5015072;28;20168;-76
2022/12/21 02:35:31;;;;;;;1.70;1.10;;;9.80;53.00;;;;;;5015379;28;20187;-76
2022/12/21 02:38:00;;;;;;;1.80;1.10;;;9.50;55.20;;;;;;5014768;28;20533;-76
2022/12/21 02:40:28;;;;;;;3.22;2.33;;;9.90;52.50;;;;;;5012547;28;20680;-76
2022/12/21 02:46:26;;;;;;;1.70;1.10;;;9.70;56.30;;;;;;5012042;28;20252;-76
2022/12/21 02:49:00;;;;;;;2.00;1.40;;;10.10;52.70;;;;;;5017826;28;20176;-77
2022/12/21 02:51:39;;;;;;;2.20;1.42;;;9.40;58.40;;;;;;5015001;28;20189;-77
2022/12/21 02:54:05;;;;;;;1.90;1.30;;;9.60;59.50;;;;;;5017921;28;20173;-77
2022/12/21 02:56:31;;;;;;;3.13;1.67;;;10.00;54.80;;;;;;5017949;28;20204;-77
2022/12/21 02:58:57;;;;;;;1.90;1.23;;;10.10;54.00;;;;;;5018225;28;20183;-76
2022/12/21 03:01:46;;;;;;;5.32;3.35;;;10.50;51.80;;;;;;5013056;28;20207;-76
2022/12/21 03:04:19;;;;;;;2.92;1.38;;;10.50;51.30;;;;;;5012761;28;20178;-76
2022/12/21 03:07:06;;;;;;;2.47;1.95;;;10.60;54.80;;;;;;5013887;28;20202;-77
2022/12/21 03:10:09;;;;;;;2.60;1.65;;;10.80;53.20;;;;;;5002577;28;20178;-77
2022/12/21 03:12:35;;;;;;;1.95;1.15;;;10.80;51.10;;;;;;5006856;28;20209;-77
2022/12/21 03:15:13;;;;;;;2.23;1.50;;;10.80;50.70;;;;;;5018082;28;20226;-78
2022/12/21 03:17:49;;;;;;;2.22;1.30;;;10.70;53.00;;;;;;5012661;28;20556;-77
2022/12/21 03:20:27;;;;;;;1.80;1.20;;;11.00;51.40;;;;;;5013179;28;20193;-77
2022/12/21 03:23:22;;;;;;;1.73;1.10;;;11.00;50.60;;;;;;5013483;28;20622;-77
2022/12/21 03:25:55;;;;;;;2.65;1.42;;;11.10;49.80;;;;;;5007346;28;20201;-76
2022/12/21 03:28:26;;;;;;;1.70;1.20;;;11.40;50.00;;;;;;5013354;28;20313;-76
2022/12/21 03:30:55;;;;;;;2.30;1.45;;;11.10;50.50;;;;;;5013766;28;20266;-75
2022/12/21 03:33:26;;;;;;;1.80;1.20;;;11.10;51.60;;;;;;5013039;28;20185;-75
2022/12/21 03:36:03;;;;;;;1.70;1.30;;;11.50;51.90;;;;;;5012392;28;20244;-75
2022/12/21 03:38:54;;;;;;;2.20;1.55;;;11.10;50.80;;;;;;5012745;28;20248;-75
2022/12/21 03:41:28;;;;;;;1.70;1.10;;;10.80;54.50;;;;;;4997128;28;20352;-75
2022/12/21 03:43:56;;;;;;;1.70;1.00;;;10.70;58.20;;;;;;5014451;28;20166;-75
2022/12/21 03:46:27;;;;;;;1.80;1.20;;;11.10;59.20;;;;;;5011560;28;20699;-74
2022/12/21 03:49:06;;;;;;;2.10;1.30;;;11.40;55.30;;;;;;5004407;28;20310;-76
2022/12/21 03:51:48;;;;;;;1.70;1.20;;;11.50;54.20;;;;;;5013866;28;20169;-76
2022/12/21 03:54:35;;;;;;;1.90;1.27;;;11.70;54.00;;;;;;5011896;28;20196;-76
2022/12/21 03:57:02;;;;;;;1.70;1.10;;;11.60;53.50;;;;;;5013327;28;20220;-76
2022/12/21 03:59:27;;;;;;;1.65;1.10;;;11.80;53.60;;;;;;5009240;28;20194;-75
2022/12/21 04:02:15;;;;;;;1.60;1.00;;;12.00;54.80;;;;;;5011241;28;20277;-75
2022/12/21 04:05:10;;;;;;;1.67;1.10;;;12.00;52.80;;;;;;5020005;28;20173;-73
2022/12/21 04:07:37;;;;;;;1.90;1.30;;;11.80;54.20;;;;;;5011300;28;20181;-75
2022/12/21 04:10:13;;;;;;;1.70;1.10;;;11.90;53.70;;;;;;5011054;28;20651;-75
2022/12/21 04:12:39;;;;;;;1.60;1.10;;;11.50;54.30;;;;;;5013323;28;20177;-76
2022/12/21 04:15:14;;;;;;;2.43;1.40;;;11.00;57.50;;;;;;5013644;28;20173;-76
2022/12/21 04:17:42;;;;;;;1.90;1.40;;;11.50;54.50;;;;;;5012911;28;20415;-76
2022/12/21 04:20:19;;;;;;;1.80;1.10;;;11.30;53.70;;;;;;5009929;28;20279;-75
2022/12/21 04:28:22;;;;;;;2.05;1.30;;;11.40;54.90;;;;;;5011370;28;20751;-76
2022/12/21 04:30:48;;;;;;;2.22;1.50;;;11.70;54.30;;;;;;5013110;28;20194;-76
2022/12/21 04:33:18;;;;;;;1.80;1.23;;;11.70;52.70;;;;;;5012948;28;20177;-76
2022/12/21 04:38:31;;;;;;;1.67;1.10;;;11.80;53.20;;;;;;5007157;28;20244;-75
2022/12/21 04:40:57;;;;;;;2.00;1.40;;;11.70;59.20;;;;;;5008359;28;20243;-75
2022/12/21 04:43:23;;;;;;;1.70;1.10;;;12.10;56.10;;;;;;5014007;28;20169;-75
2022/12/21 04:45:49;;;;;;;2.00;1.50;;;12.10;54.70;;;;;;5006131;28;20559;-76
2022/12/21 04:48:16;;;;;;;1.70;1.10;;;12.20;55.70;;;;;;5013015;28;20264;-76
2022/12/21 04:50:42;;;;;;;1.70;1.20;;;12.30;53.40;;;;;;5013069;28;20436;-76
2022/12/21 04:53:08;;;;;;;1.70;1.20;;;12.30;53.60;;;;;;5013147;28;20189;-76
2022/12/21 04:55:34;;;;;;;2.05;1.45;;;12.00;55.40;;;;;;5012816;28;20197;-75
2022/12/21 04:58:00;;;;;;;1.70;1.17;;;12.40;56.60;;;;;;5009061;28;20190;-74
2022/12/21 05:00:26;;;;;;;1.70;1.20;;;11.90;56.50;;;;;;5005255;28;20205;-75
2022/12/21 05:02:51;;;;;;;1.67;1.10;;;12.10;56.40;;;;;;5008394;28;20556;-76
2022/12/21 05:05:17;;;;;;;1.60;1.17;;;12.20;59.60;;;;;;5014560;28;20678;-76
2022/12/21 05:07:42;;;;;;;1.73;1.30;;;12.40;57.10;;;;;;5013506;28;20256;-76
2022/12/21 05:10:09;;;;;;;1.60;1.10;;;12.60;57.40;;;;;;5008607;28;20169;-76
2022/12/21 05:12:34;;;;;;;1.50;1.00;;;12.70;60.50;;;;;;5004899;28;20182;-75
2022/12/21 05:15:00;;;;;;;1.73;1.20;;;12.90;56.60;;;;;;5012363;28;20950;-77
2022/12/21 05:17:26;;;;;;;1.60;1.10;;;13.20;57.80;;;;;;5012232;28;20169;-75
2022/12/21 05:19:51;;;;;;;1.70;1.10;;;13.40;56.60;;;;;;5010220;28;20223;-77
2022/12/21 05:22:17;;;;;;;1.70;1.10;;;13.40;56.30;;;;;;5007559;28;20209;-76
2022/12/21 05:24:44;;;;;;;1.60;1.00;;;13.40;54.00;;;;;;5012258;28;20223;-76
2022/12/21 05:27:11;;;;;;;1.80;1.30;;;13.20;57.10;;;;;;5012641;28;20923;-76
2022/12/21 05:29:36;;;;;;;1.60;1.00;;;13.20;56.70;;;;;;5012443;28;20491;-76
2022/12/21 05:32:02;;;;;;;1.60;1.10;;;13.40;54.90;;;;;;5007867;28;20507;-72
2022/12/21 05:34:27;;;;;;;1.80;1.27;;;13.30;54.90;;;;;;5010844;28;20181;-77
2022/12/21 05:36:53;;;;;;;1.70;1.10;;;13.20;55.80;;;;;;5009674;28;20611;-76
2022/12/21 05:39:19;;;;;;;1.60;1.00;;;13.20;55.30;;;;;;5011488;28;20197;-76
2022/12/21 05:41:44;;;;;;;1.70;1.20;;;13.20;55.00;;;;;;5011199;28;20284;-77
2022/12/21 05:44:10;;;;;;;1.80;1.23;;;13.20;55.50;;;;;;5002724;28;20174;-75
2022/12/21 05:46:35;;;;;;;1.70;1.17;;;13.30;56.60;;;;;;5011506;28;20221;-73
2022/12/21 05:49:01;;;;;;;1.73;1.20;;;13.70;54.90;;;;;;5011408;28;20173;-74
2022/12/21 05:51:27;;;;;;;1.80;1.10;;;13.30;56.10;;;;;;5040878;22;20227;-75
2022/12/21 05:53:53;;;;;;;1.70;1.20;;;13.20;58.30;;;;;;5003611;28;20443;-78
2022/12/21 05:56:19;;;;;;;1.60;1.07;;;13.30;58.50;;;;;;5009974;28;20177;-72
2022/12/21 05:58:45;;;;;;;1.70;1.10;;;13.20;58.10;;;;;;5007003;28;20416;-72
2022/12/21 06:01:12;;;;;;;1.70;1.10;;;13.20;59.00;;;;;;4998728;28;20519;-72
2022/12/21 06:03:39;;;;;;;1.70;1.10;;;13.50;58.10;;;;;;4991757;28;20252;-75
2022/12/21 06:06:10;;;;;;;1.70;1.10;;;13.80;56.30;;;;;;4989856;28;20431;-72
2022/12/21 06:08:36;;;;;;;1.70;1.10;;;13.50;56.30;;;;;;4990955;28;20417;-72
2022/12/21 06:11:05;;;;;;;1.70;1.10;;;13.30;58.60;;;;;;4989483;28;20499;-72
2022/12/21 06:13:31;;;;;;;1.70;1.00;;;13.50;57.40;;;;;;4990720;28;20186;-72
2022/12/21 06:16:02;;;;;;;1.73;1.10;;;13.60;57.00;;;;;;4990476;28;20496;-72
2022/12/21 06:18:28;;;;;;;1.80;1.10;;;14.00;56.80;;;;;;4987247;28;20178;-74
2022/12/21 06:20:53;;;;;;;1.70;1.10;;;13.90;55.20;;;;;;4992095;28;20579;-72
2022/12/21 06:23:19;;;;;;;1.80;1.10;;;13.60;57.30;;;;;;4993257;28;20186;-72
2022/12/21 06:25:45;;;;;;;1.70;1.10;;;13.50;56.70;;;;;;4989309;28;20188;-73
2022/12/21 06:28:11;;;;;;;1.80;1.10;;;13.40;57.20;;;;;;4994767;28;20190;-72
2022/12/21 06:30:37;;;;;;;1.80;1.10;;;13.60;56.20;;;;;;4989998;28;20198;-73
2022/12/21 06:33:02;;;;;;;1.77;1.10;;;13.80;54.90;;;;;;4990897;28;20452;-73
2022/12/21 06:35:28;;;;;;;1.70;1.10;;;14.00;55.00;;;;;;4987076;28;20260;-72
2022/12/21 06:37:54;;;;;;;2.30;1.40;;;13.60;55.10;;;;;;4994335;28;20486;-73
2022/12/21 06:40:20;;;;;;;2.10;1.30;;;13.80;53.30;;;;;;4982581;28;20194;-72
2022/12/21 06:42:46;;;;;;;1.80;1.10;;;13.80;54.70;;;;;;4987185;28;20182;-75
2022/12/21 06:45:11;;;;;;;1.80;1.10;;;14.10;53.40;;;;;;4991938;28;20835;-74
2022/12/21 06:47:37;;;;;;;2.20;1.37;;;14.20;53.20;;;;;;4991394;28;20685;-74
2022/12/21 06:50:03;;;;;;;2.00;1.20;;;14.30;52.20;;;;;;4990594;28;20189;-76
2022/12/21 06:52:28;;;;;;;1.83;1.00;;;14.30;51.00;;;;;;4985121;28;20229;-75
2022/12/21 06:54:55;;;;;;;1.90;1.10;;;14.10;52.40;;;;;;4992647;28;20193;-72
2022/12/21 06:57:20;;;;;;;1.90;1.10;;;14.20;52.50;;;;;;4986619;28;20181;-72
2022/12/21 06:59:46;;;;;;;2.00;1.10;;;13.90;56.20;;;;;;4992855;28;20455;-72
2022/12/21 07:02:12;;;;;;;2.10;1.20;;;12.80;58.00;;;;;;4966454;28;20225;-72
2022/12/21 07:04:37;;;;;;;1.90;1.10;;;13.20;56.70;;;;;;4994910;28;20537;-74
2022/12/21 07:07:03;;;;;;;2.00;1.10;;;13.00;56.30;;;;;;4994769;28;20614;-72
2022/12/21 07:09:28;;;;;;;2.67;1.50;;;13.00;56.40;;;;;;4994336;28;20189;-72
2022/12/21 07:11:54;;;;;;;1.93;1.10;;;12.60;56.90;;;;;;4992276;28;20229;-72
2022/12/21 07:14:19;;;;;;;1.90;1.10;;;12.40;58.00;;;;;;4976590;28;20220;-74
2022/12/21 07:16:45;;;;;;;3.03;1.20;;;12.20;59.60;;;;;;4993892;28;20220;-74
2022/12/21 07:19:10;;;;;;;2.40;1.40;;;12.40;58.40;;;;;;4994660;28;20178;-72
2022/12/21 07:21:36;;;;;;;1.90;1.10;;;12.80;56.70;;;;;;4974481;28;20217;-72
2022/12/21 07:24:02;;;;;;;1.83;1.10;;;12.90;55.00;;;;;;4994495;28;20186;-74
2022/12/21 07:26:27;;;;;;;1.80;1.10;;;12.80;54.80;;;;;;4993849;28;20186;-73
2022/12/21 07:28:54;;;;;;;1.80;1.10;;;12.90;54.50;;;;;;4994636;28;20417;-72
2022/12/21 07:31:22;;;;;;;1.80;1.10;;;13.40;53.90;;;;;;4991100;28;20209;-72
2022/12/21 07:33:48;;;;;;;1.80;1.10;;;12.70;54.90;;;;;;4982435;28;20441;-72
2022/12/21 07:36:14;;;;;;;2.00;1.30;;;12.80;54.50;;;;;;4992792;28;20425;-74
2022/12/21 07:38:41;;;;;;;1.80;1.10;;;12.90;54.30;;;;;;4993568;28;20484;-74
2022/12/21 07:41:10;;;;;;;3.70;1.93;;;12.40;55.10;;;;;;4994032;28;20472;-71
2022/12/21 07:43:36;;;;;;;2.10;1.30;;;12.80;56.40;;;;;;4993692;28;20429;-71
2022/12/21 07:46:02;;;;;;;1.90;1.20;;;12.50;55.30;;;;;;4993684;28;20429;-72
2022/12/21 07:48:29;;;;;;;1.80;1.10;;;12.60;56.10;;;;;;4986333;28;20431;-72
2022/12/21 07:50:55;;;;;;;1.87;1.17;;;12.40;55.70;;;;;;4985992;28;20476;-72
2022/12/21 07:53:21;;;;;;;1.80;1.13;;;12.30;56.50;;;;;;4992184;28;20864;-72
2022/12/21 07:55:47;;;;;;;1.73;1.07;;;12.40;57.50;;;;;;4992731;28;20660;-72
2022/12/21 07:58:13;;;;;;;1.80;1.10;;;12.30;56.50;;;;;;4988468;28;20492;-72
2022/12/21 08:00:39;;;;;;;2.17;1.53;;;12.30;57.50;;;;;;4989518;28;21130;-71
2022/12/21 08:03:05;;;;;;;1.93;1.27;;;12.20;56.20;;;;;;4990537;28;20185;-72
2022/12/21 08:05:31;;;;;;;1.83;1.20;;;11.80;58.40;;;;;;4986266;28;20912;-72
2022/12/21 08:07:57;;;;;;;1.80;1.10;;;12.00;60.70;;;;;;4992178;28;20433;-73
2022/12/21 08:10:23;;;;;;;2.37;1.30;;;11.80;59.30;;;;;;4990288;28;20202;-72
2022/12/21 08:12:49;;;;;;;1.80;1.10;;;12.00;58.80;;;;;;4993301;28;20421;-71
2022/12/21 08:15:15;;;;;;;1.80;1.10;;;12.10;57.80;;;;;;4993542;28;20864;-72
2022/12/21 08:17:41;;;;;;;1.70;1.00;;;12.00;58.20;;;;;;4974314;28;20185;-71
2022/12/21 08:20:07;;;;;;;2.00;1.17;;;12.00;57.30;;;;;;4992730;28;20182;-71
2022/12/21 08:22:33;;;;;;;1.70;1.00;;;12.30;56.50;;;;;;4989195;28;20233;-71
2022/12/21 08:24:58;;;;;;;2.10;1.27;;;12.90;55.60;;;;;;4989853;28;20825;-71
2022/12/21 08:27:24;;;;;;;2.63;1.50;;;12.30;56.60;;;;;;4993180;28;20189;-74
2022/12/21 08:29:49;;;;;;;2.50;1.70;;;12.00;57.90;;;;;;4987194;28;20277;-72
2022/12/21 08:32:15;;;;;;;1.70;1.00;;;12.20;57.80;;;;;;4972292;28;20213;-71
2022/12/21 08:34:41;;;;;;;1.83;1.20;;;12.30;56.60;;;;;;4994914;28;20193;-76
2022/12/21 08:37:06;;;;;;;1.90;1.20;;;12.40;56.90;;;;;;5002829;28;20174;-72
2022/12/21 08:39:32;;;;;;;1.80;1.20;;;12.30;56.60;;;;;;4989562;28;20193;-71
2022/12/21 08:41:57;;;;;;;1.80;1.13;;;12.40;57.00;;;;;;4992126;28;20221;-71
2022/12/21 08:44:23;;;;;;;1.90;1.20;;;12.60;57.30;;;;;;4993086;28;20201;-71
2022/12/21 08:46:48;;;;;;;1.80;1.10;;;12.40;56.80;;;;;;4993386;28;20174;-72
2022/12/21 08:49:14;;;;;;;1.90;1.27;;;12.40;56.90;;;;;;4991088;28;20198;-72
2022/12/21 08:51:40;;;;;;;1.73;1.03;;;12.30;57.80;;;;;;4987170;28;20214;-71
2022/12/21 08:54:07;;;;;;;1.70;1.10;;;12.20;58.90;;;;;;4992339;28;20236;-71
2022/12/21 08:56:33;;;;;;;1.83;1.20;;;12.40;58.30;;;;;;4993829;28;20182;-72
2022/12/21 08:59:03;;;;;;;1.80;1.10;;;12.60;57.20;;;;;;4993462;28;20414;-72
2022/12/21 09:01:29;;;;;;;1.70;1.10;;;12.90;55.70;;;;;;4989736;28;20477;-72
2022/12/21 09:03:55;;;;;;;1.80;1.20;;;13.40;54.20;;;;;;4993283;28;20410;-73
2022/12/21 09:06:21;;;;;;;1.90;1.23;;;13.50;54.70;;;;;;4991780;28;20443;-72
2022/12/21 09:08:46;;;;;;;1.80;1.20;;;13.00;54.70;;;;;;4985066;28;20178;-72
2022/12/21 09:11:14;;;;;;;1.90;1.10;;;13.20;54.90;;;;;;4979128;28;20229;-71
2022/12/21 09:13:40;;;;;;;1.80;1.00;;;13.20;55.00;;;;;;4989772;28;20190;-73
2022/12/21 09:16:18;;;;;;;1.90;1.10;;;13.40;53.80;;;;;;4993711;28;20421;-72
2022/12/21 09:18:45;;;;;;;2.10;1.23;;;13.50;53.10;;;;;;5012035;28;20404;-72
2022/12/21 09:21:15;;;;;;;2.03;1.30;;;13.50;53.50;;;;;;5001901;28;20568;-74
2022/12/21 09:23:42;;;;;;;2.33;1.30;;;13.70;52.10;;;;;;4993717;28;20429;-74
2022/12/21 09:26:08;;;;;;;1.90;1.20;;;13.70;51.90;;;;;;4995263;28;20413;-74
2022/12/21 09:28:35;;;;;;;1.90;1.20;;;13.90;52.60;;;;;;4993778;28;20493;-74
2022/12/21 09:31:12;;;;;;;2.00;1.30;;;13.60;52.60;;;;;;5005839;28;20447;-74
2022/12/21 09:33:39;;;;;;;2.30;1.40;;;13.40;53.30;;;;;;5002318;28;20456;-68
2022/12/21 09:36:06;;;;;;;2.60;1.60;;;13.60;52.80;;;;;;4996475;28;20783;-71
2022/12/21 09:38:32;;;;;;;1.90;1.20;;;13.80;52.10;;;;;;4989229;28;20960;-69
2022/12/21 09:41:06;;;;;;;2.20;1.33;;;13.90;52.00;;;;;;4993892;28;20504;-68
2022/12/21 09:43:51;;;;;;;2.30;1.63;;;14.00;50.90;;;;;;4985037;28;20630;-69
2022/12/21 09:46:17;;;;;;;1.90;1.15;;;14.00;50.60;;;;;;4996221;28;20471;-68
2022/12/21 09:49:05;;;;;;;1.90;1.10;;;14.00;51.30;;;;;;4998067;28;20217;-70
2022/12/21 09:51:32;;;;;;;2.50;1.50;;;14.10;50.60;;;;;;4996718;28;20473;-68
2022/12/21 09:54:00;;;;;;;2.00;1.20;;;14.00;50.20;;;;;;5000798;28;20409;-70
2022/12/21 09:56:28;;;;;;;1.90;1.10;;;13.90;51.10;;;;;;5000456;28;20459;-70
2022/12/21 09:58:55;;;;;;;2.30;1.40;;;14.10;51.10;;;;;;5000093;28;20429;-70
2022/12/21 10:01:27;;;;;;;1.87;1.00;;;13.80;52.40;;;;;;4991311;28;20472;-70
2022/12/21 10:03:55;;;;;;;2.20;1.40;;;13.70;52.30;;;;;;4998633;28;20441;-70
2022/12/21 10:06:49;;;;;;;2.60;1.57;;;14.10;52.90;;;;;;4983241;28;20445;-70
2022/12/21 10:09:48;;;;;;;1.90;1.10;;;14.00;52.30;;;;;;4983267;28;21084;-74
2022/12/21 10:12:37;;;;;;;2.00;1.10;;;14.10;52.10;;;;;;4993223;28;20970;-70
2022/12/21 10:15:33;;;;;;;2.00;1.10;;;14.20;52.00;;;;;;4998951;28;20472;-74
2022/12/21 10:18:31;;;;;;;2.07;1.20;;;14.30;50.70;;;;;;5003857;28;20432;-70
2022/12/21 10:20:56;;;;;;;2.10;1.20;;;14.60;50.20;;;;;;4898688;29;20481;-70
2022/12/21 10:23:35;;;;;;;2.40;1.27;;;14.30;50.40;;;;;;4900899;29;20476;-72
2022/12/21 10:26:05;;;;;;;2.70;1.50;;;12.90;58.90;;;;;;4901986;29;20236;-72
2022/12/21 10:28:51;;;;;;;3.73;2.17;;;12.50;63.60;;;;;;4883252;29;20735;-69
2022/12/21 10:31:24;;;;;;;4.40;1.73;;;12.80;61.00;;;;;;4893643;29;20473;-73
2022/12/21 10:33:54;;;;;;;3.33;1.60;;;12.80;61.00;;;;;;4887847;29;20443;-69
2022/12/21 10:36:23;;;;;;;2.47;1.40;;;13.40;57.20;;;;;;4900874;29;20449;-70
2022/12/21 10:38:49;;;;;;;2.70;1.40;;;13.80;54.50;;;;;;4902443;29;20425;-70
2022/12/21 10:41:28;;;;;;;2.73;1.53;;;14.40;54.50;;;;;;4903612;29;20882;-72
2022/12/21 10:43:56;;;;;;;2.90;1.80;;;14.30;52.90;;;;;;4890286;29;20186;-70
2022/12/21 10:46:28;;;;;;;3.20;1.87;;;14.50;52.10;;;;;;4885259;29;20537;-69
2022/12/21 10:49:00;;;;;;;2.70;1.53;;;14.30;52.60;;;;;;4899988;29;20411;-68
2022/12/21 10:51:32;;;;;;;3.83;2.17;;;14.30;52.60;;;;;;4899546;29;20460;-69
2022/12/21 10:54:04;;;;;;;3.00;1.77;;;14.20;53.30;;;;;;4898472;29;20447;-69
2022/12/21 10:56:45;;;;;;;2.60;1.43;;;14.50;52.80;;;;;;4913450;28;20505;-70
2022/12/21 10:59:39;;;;;;;2.70;1.50;;;14.50;52.80;;;;;;4989372;28;20431;-69
2022/12/21 11:02:06;;;;;;;2.83;1.50;;;14.30;53.50;;;;;;5000255;28;20462;-69
2022/12/21 11:04:32;;;;;;;2.80;1.50;;;14.10;54.30;;;;;;4999865;28;20459;-71
2022/12/21 11:07:04;;;;;;;4.50;2.40;;;14.20;54.30;;;;;;4997248;28;20446;-71
2022/12/21 11:09:40;;;;;;;2.93;1.53;;;14.50;53.60;;;;;;4998255;28;20438;-71
2022/12/21 11:12:17;;;;;;;5.00;2.77;;;14.60;52.80;;;;;;4998708;28;20470;-72
2022/12/21 11:14:42;;;;;;;3.50;1.97;;;14.80;53.00;;;;;;4993329;28;20468;-69
2022/12/21 11:17:17;;;;;;;4.10;2.10;;;15.20;51.90;;;;;;4991881;28;20929;-69
2022/12/21 11:19:43;;;;;;;3.17;1.60;;;14.70;53.30;;;;;;4997939;28;20183;-69
2022/12/21 11:22:11;;;;;;;3.20;1.83;;;14.40;54.70;;;;;;4993945;28;20466;-69
2022/12/21 11:24:41;;;;;;;6.70;2.13;;;14.40;55.70;;;;;;4994265;28;20173;-69
2022/12/21 11:27:10;;;;;;;3.20;1.87;;;14.90;53.10;;;;;;4990101;28;20438;-69
2022/12/21 11:29:47;;;;;;;2.73;1.30;;;15.20;52.10;;;;;;4993248;28;20454;-72
2022/12/21 11:32:15;;;;;;;2.67;1.20;;;15.20;51.80;;;;;;4985480;28;20462;-69
2022/12/21 11:35:02;;;;;;;3.00;1.60;;;15.20;50.60;;;;;;4994061;28;20459;-70
2022/12/21 11:37:36;;;;;;;2.90;1.40;;;15.10;51.70;;;;;;4980814;28;20473;-69
2022/12/21 11:40:11;;;;;;;2.83;1.50;;;15.30;51.60;;;;;;4994026;28;20414;-70
2022/12/21 11:42:51;;;;;;;2.90;1.30;;;15.40;52.10;;;;;;4988074;28;20485;-70
2022/12/21 11:45:22;;;;;;;2.87;1.40;;;15.40;53.00;;;;;;4983664;28;20452;-69
2022/12/21 11:47:53;;;;;;;2.90;1.20;;;16.20;48.60;;;;;;4993701;28;20893;-69
2022/12/21 11:50:30;;;;;;;3.30;1.67;;;16.20;48.50;;;;;;4992593;28;21344;-70
2022/12/21 11:53:04;;;;;;;3.00;1.30;;;16.40;49.10;;;;;;4990183;28;20543;-69
2022/12/21 11:55:34;;;;;;;3.40;1.40;;;16.40;48.30;;;;;;4983346;28;20491;-69
2022/12/21 11:58:09;;;;;;;3.10;1.30;;;16.00;48.60;;;;;;4993858;28;20399;-69
2022/12/21 12:00:49;;;;;;;3.00;1.10;;;16.20;48.70;;;;;;4986304;28;20543;-75
2022/12/21 12:03:30;;;;;;;3.10;1.30;;;16.80;45.80;;;;;;4993453;28;21100;-70
2022/12/21 12:06:34;;;;;;;3.10;1.23;;;17.00;45.50;;;;;;4993569;28;20559;-70
2022/12/21 12:09:18;;;;;;;3.10;1.30;;;16.40;46.90;;;;;;4981536;28;20413;-70
2022/12/21 12:12:25;;;;;;;3.00;1.33;;;14.90;53.10;;;;;;4987081;28;20483;-71
2022/12/21 12:14:53;;;;;;;3.70;1.60;;;14.70;54.30;;;;;;4985016;28;20428;-69
2022/12/21 12:17:56;;;;;;;3.27;1.70;;;14.50;54.70;;;;;;4993169;28;20495;-71
2022/12/21 12:20:40;;;;;;;3.77;1.77;;;14.20;56.50;;;;;;4993070;28;20549;-69
2022/12/21 12:23:18;;;;;;;3.27;1.50;;;13.70;60.90;;;;;;4989921;28;20413;-69
2022/12/21 12:26:02;;;;;;;3.00;1.30;;;14.10;60.00;;;;;;4987309;28;20412;-68
2022/12/21 12:29:00;;;;;;;4.40;1.83;;;13.90;58.80;;;;;;4993108;28;20409;-69
2022/12/21 12:31:34;;;;;;;3.10;1.30;;;13.80;58.90;;;;;;4992322;28;20447;-69
2022/12/21 12:34:09;;;;;;;3.10;1.30;;;14.10;57.30;;;;;;4985025;28;20411;-72
2022/12/21 12:36:56;;;;;;;3.30;1.60;;;14.30;55.50;;;;;;4976253;28;20816;-69
2022/12/21 12:39:21;;;;;;;4.30;1.97;;;14.70;56.00;;;;;;4973583;28;20431;-72
2022/12/21 12:42:08;;;;;;;2.97;1.27;;;15.90;53.10;;;;;;4972884;28;20523;-69
2022/12/21 12:44:49;;;;;;;3.10;1.40;;;16.00;49.70;;;;;;4983414;28;20266;-72
2022/12/21 12:47:35;;;;;;;3.10;1.30;;;16.00;48.80;;;;;;4992475;28;20433;-69
2022/12/21 12:50:30;;;;;;;3.20;1.50;;;15.70;49.10;;;;;;4992803;28;20389;-69
2022/12/21 12:53:17;;;;;;;3.10;1.30;;;15.70;49.50;;;;;;4987782;28;21038;-69
2022/12/21 12:56:20;;;;;;;3.00;1.30;;;16.10;48.30;;;;;;4987249;28;20531;-69
2022/12/21 12:58:54;;;;;;;3.00;1.30;;;16.00;49.00;;;;;;4980368;28;20865;-69
2022/12/21 13:01:36;;;;;;;3.37;1.40;;;16.40;48.00;;;;;;4992978;28;20456;-70
2022/12/21 13:04:21;;;;;;;2.93;1.30;;;16.40;47.10;;;;;;4992262;28;20435;-73
2022/12/21 13:07:06;;;;;;;2.90;1.20;;;16.40;47.30;;;;;;4977995;28;20434;-75
2022/12/21 13:09:58;;;;;;;3.13;1.27;;;16.20;48.00;;;;;;4984975;28;20424;-69
2022/12/21 13:12:24;;;;;;;3.50;1.60;;;16.30;48.20;;;;;;4992526;28;20428;-69
2022/12/21 13:14:52;;;;;;;3.20;1.50;;;15.70;47.00;;;;;;4982361;28;20429;-68
2022/12/21 13:17:36;;;;;;;3.33;1.47;;;15.80;48.80;;;;;;4991277;28;20197;-69
2022/12/21 13:20:04;;;;;;;2.90;1.20;;;16.10;48.60;;;;;;4990545;28;20437;-73
2022/12/21 13:22:33;;;;;;;3.37;1.17;;;16.40;46.00;;;;;;4989212;28;20476;-69